• Join FlightAware (Why Join?)
  • Login
  • US Flag 
12:46PM EDT


 

Airport Tracker/Info


-or-


 

Live Flight TrackerFlight Track Log ✈ N656JG ✈ 12-Aug-2013 ✈ KFCM - KFSD

Flight Track Log - Related Links

Times and Time Zones

All times are in EDT time to prevent confusion due to time zone crossing. See the N656JG flight status page for this flight to view local times or setup timezone preferences in your user account.

Time Position Orientation Groundspeed Altitude Reporting Facility
EDT Latitude Longitude Course Direction KTS MPH feet Rate Location/Type
02:33PM 44.8122 -93.5047 226° Southwest 212 244 2,400  Level Minneapolis Center
02:34PM 44.7639 -93.5747 226° Southwest 252 290 6,300 3,660 Climbing Minneapolis Center
02:35PM 44.7164 -93.6428 226° Southwest 247 284 10,100 3,480 Climbing Minneapolis Center
02:36PM 44.6669 -93.7169 227° Southwest 261 300 13,600 3,300 Climbing Minneapolis Center
02:37PM 44.6072 -93.8078 227° Southwest 266 306 17,000 1,680 Climbing Minneapolis Center
02:38PM 44.5481 -93.9083 230° Southwest 349 402 17,100  Climbing Minneapolis Center
02:39PM 44.4914 -94.0186 234° Southwest 350 403 17,100  Level Minneapolis Center
02:40PM 44.4331 -94.1289 233° Southwest 352 405 17,100 960 Level Minneapolis Center
02:41PM 44.3775 -94.2364 234° Southwest 344 396 19,200 2,340 Climbing Minneapolis Center
02:42PM 44.3256 -94.3358 234° Southwest 325 374 22,000 1,320 Climbing Minneapolis Center
02:43PM 44.2547 -94.4669 233° Southwest 347 399 22,000  Level Minneapolis Center
02:44PM 44.1922 -94.5853 234° Southwest 372 428 22,000  Level Minneapolis Center
02:45PM 44.1317 -94.6964 233° Southwest 384 442 22,000  Level Minneapolis Center
02:46PM 44.0889 -94.8561 250° West 370 426 22,000  Level Minneapolis Center
02:47PM 44.0544 -94.9894 250° West 366 421 22,000  Level Minneapolis Center
02:48PM 44.0261 -95.0958 250° West 367 422 22,000  Level Minneapolis Center
02:49PM 43.9842 -95.2558 250° West 367 422 22,000  Level Minneapolis Center
02:51PM 43.9486 -95.3917 250° West 372 428 22,000  Level Minneapolis Center
02:52PM 43.9119 -95.5272 249° West 374 430 22,000  Level Minneapolis Center
02:53PM 43.8603 -95.7194 250° West 378 435 22,000 -660 Level Minneapolis Center
02:54PM 43.8247 -95.8536 250° West 372 428 20,700 -2,100 Descending Minneapolis Center
02:55PM 43.7908 -95.9803 250° West 354 407 17,700 -2,820 Descending Minneapolis Center
02:56PM 43.7572 -96.1039 249° West 345 397 14,900 -2,760 Descending Minneapolis Center
02:57PM 43.7239 -96.2261 249° West 340 391 12,000 -2,760 Descending Minneapolis Center
02:58PM 43.6919 -96.3414 249° West 332 382 9,300 -2,520 Descending Minneapolis Center
02:59PM 43.6636 -96.4472 250° West 316 364 6,900 -2,640 Descending Minneapolis Center
03:00PM 43.6306 -96.5517 246° West 273 314 3,900 -1,860 Descending Minneapolis Center
03:01PM 43.5992 -96.6264 240° Southwest 249 287 3,100 -720 Descending Minneapolis Center
03:02PM 43.5644 -96.6756 226° Southwest 210 242 2,500 -660 Descending Minneapolis Center
03:03PM 43.5589 -96.7239 261° West 167 192 1,800 -720 Descending Minneapolis Center
03:05PM 43.5667 -96.7333 235° Southwest  Level FlightAware Approximate
03:12PM 43.5820 -96.7419 235° Southwest  Level Estimated
03:13PM 43.5820 -96.7419 235° Southwest  Level Estimated